Terminal Aerodrome Forecast
Issued by NWS

Home | Current Version | Previous Version | Text Only | Print | Product List | Glossary On
Versions: 1 2 3 4 5 6 7 8 9 10 11 12 13 14 15 16 17 18 19
000
FTUS43 KLSX 230700 AAA
TAFUIN
TAF AMD
KUIN 230722Z 2307/2406 22010G20KT P6SM OVC020
     FM230830 23010KT P6SM SCT025
     FM231800 24008KT P6SM BKN200
     FM240300 32006KT P6SM BKN015=

USA.gov is the U.S. government's official web portal to all federal, state and local government web resources and services.